sensor_id;sensor_type;location;lat;lon;timestamp;P1;durP1;ratioP1;P2;durP2;ratioP2
64903;SDS011;51401;48.882;12.598;2023-03-01T00:01:19;19.38;;;11.43;;
64903;SDS011;51401;48.882;12.598;2023-03-01T00:03:46;20.45;;;11.60;;
64903;SDS011;51401;48.882;12.598;2023-03-01T00:06:12;20.25;;;12.32;;
64903;SDS011;51401;48.882;12.598;2023-03-01T00:08:38;18.75;;;10.35;;
64903;SDS011;51401;48.882;12.598;2023-03-01T00:11:14;22.65;;;10.43;;
64903;SDS011;51401;48.882;12.598;2023-03-01T00:13:40;20.48;;;11.27;;
64903;SDS011;51401;48.882;12.598;2023-03-01T00:16:09;18.17;;;10.52;;
64903;SDS011;51401;48.882;12.598;2023-03-01T00:18:36;20.67;;;11.65;;
64903;SDS011;51401;48.882;12.598;2023-03-01T00:21:02;19.65;;;11.57;;
64903;SDS011;51401;48.882;12.598;2023-03-01T00:23:28;17.30;;;10.75;;
64903;SDS011;51401;48.882;12.598;2023-03-01T00:25:53;21.83;;;10.95;;
64903;SDS011;51401;48.882;12.598;2023-03-01T00:28:19;20.67;;;11.63;;
64903;SDS011;51401;48.882;12.598;2023-03-01T00:30:45;19.88;;;11.40;;
64903;SDS011;51401;48.882;12.598;2023-03-01T00:33:10;20.15;;;10.88;;
64903;SDS011;51401;48.882;12.598;2023-03-01T00:35:36;17.52;;;9.93;;
64903;SDS011;51401;48.882;12.598;2023-03-01T00:38:02;17.27;;;10.27;;
64903;SDS011;51401;48.882;12.598;2023-03-01T00:40:29;17.70;;;10.20;;
64903;SDS011;51401;48.882;12.598;2023-03-01T00:42:56;18.63;;;10.77;;
64903;SDS011;51401;48.882;12.598;2023-03-01T00:45:22;22.08;;;11.80;;
64903;SDS011;51401;48.882;12.598;2023-03-01T00:47:48;22.05;;;12.93;;
64903;SDS011;51401;48.882;12.598;2023-03-01T00:50:13;23.38;;;12.43;;
64903;SDS011;51401;48.882;12.598;2023-03-01T00:52:39;18.55;;;10.65;;
64903;SDS011;51401;48.882;12.598;2023-03-01T00:55:04;18.23;;;10.15;;
64903;SDS011;51401;48.882;12.598;2023-03-01T00:57:31;21.55;;;10.85;;
64903;SDS011;51401;48.882;12.598;2023-03-01T00:59:56;21.95;;;11.25;;
64903;SDS011;51401;48.882;12.598;2023-03-01T01:02:22;21.13;;;9.95;;
64903;SDS011;51401;48.882;12.598;2023-03-01T01:04:47;24.67;;;11.30;;
64903;SDS011;51401;48.882;12.598;2023-03-01T01:07:13;16.95;;;10.15;;
64903;SDS011;51401;48.882;12.598;2023-03-01T01:09:38;17.27;;;10.20;;
64903;SDS011;51401;48.882;12.598;2023-03-01T01:12:04;17.42;;;11.20;;
64903;SDS011;51401;48.882;12.598;2023-03-01T01:14:29;18.25;;;11.52;;
64903;SDS011;51401;48.882;12.598;2023-03-01T01:16:55;22.98;;;10.75;;
64903;SDS011;51401;48.882;12.598;2023-03-01T01:19:21;18.40;;;11.07;;
64903;SDS011;51401;48.882;12.598;2023-03-01T01:21:47;19.75;;;9.77;;
64903;SDS011;51401;48.882;12.598;2023-03-01T01:24:13;20.58;;;11.07;;
64903;SDS011;51401;48.882;12.598;2023-03-01T01:26:39;20.30;;;11.18;;
64903;SDS011;51401;48.882;12.598;2023-03-01T01:29:05;20.58;;;10.77;;
64903;SDS011;51401;48.882;12.598;2023-03-01T01:31:32;20.35;;;12.18;;
64903;SDS011;51401;48.882;12.598;2023-03-01T01:33:59;23.75;;;11.15;;
64903;SDS011;51401;48.882;12.598;2023-03-01T01:36:26;23.20;;;11.25;;
64903;SDS011;51401;48.882;12.598;2023-03-01T01:38:52;23.17;;;12.05;;
64903;SDS011;51401;48.882;12.598;2023-03-01T01:41:18;20.40;;;12.15;;
64903;SDS011;51401;48.882;12.598;2023-03-01T01:43:46;21.67;;;11.10;;
64903;SDS011;51401;48.882;12.598;2023-03-01T01:46:20;23.08;;;10.65;;
64903;SDS011;51401;48.882;12.598;2023-03-01T01:48:56;19.40;;;11.45;;
64903;SDS011;51401;48.882;12.598;2023-03-01T01:51:37;19.13;;;11.57;;
64903;SDS011;51401;48.882;12.598;2023-03-01T01:54:16;20.80;;;11.57;;
64903;SDS011;51401;48.882;12.598;2023-03-01T01:56:51;21.90;;;12.55;;
64903;SDS011;51401;48.882;12.598;2023-03-01T01:59:20;22.83;;;11.00;;
64903;SDS011;51401;48.882;12.598;2023-03-01T02:01:49;21.30;;;10.90;;
64903;SDS011;51401;48.882;12.598;2023-03-01T02:04:15;19.08;;;10.52;;
64903;SDS011;51401;48.882;12.598;2023-03-01T02:06:42;24.92;;;11.43;;
64903;SDS011;51401;48.882;12.598;2023-03-01T02:09:15;19.75;;;11.80;;
64903;SDS011;51401;48.882;12.598;2023-03-01T02:11:43;21.17;;;10.70;;
64903;SDS011;51401;48.882;12.598;2023-03-01T02:14:09;25.08;;;11.82;;
64903;SDS011;51401;48.882;12.598;2023-03-01T02:16:35;19.80;;;10.40;;
64903;SDS011;51401;48.882;12.598;2023-03-01T02:19:00;22.55;;;11.20;;
64903;SDS011;51401;48.882;12.598;2023-03-01T02:21:37;18.63;;;11.15;;
64903;SDS011;51401;48.882;12.598;2023-03-01T02:27:16;24.15;;;12.23;;
64903;SDS011;51401;48.882;12.598;2023-03-01T02:29:49;21.85;;;11.25;;
64903;SDS011;51401;48.882;12.598;2023-03-01T02:32:14;21.75;;;12.10;;
64903;SDS011;51401;48.882;12.598;2023-03-01T02:34:41;18.17;;;10.98;;
64903;SDS011;51401;48.882;12.598;2023-03-01T02:37:08;17.48;;;10.38;;
64903;SDS011;51401;48.882;12.598;2023-03-01T02:39:40;21.25;;;12.50;;
64903;SDS011;51401;48.882;12.598;2023-03-01T02:42:14;17.83;;;10.38;;
64903;SDS011;51401;48.882;12.598;2023-03-01T02:44:43;20.92;;;10.50;;
64903;SDS011;51401;48.882;12.598;2023-03-01T02:47:09;21.98;;;11.18;;
64903;SDS011;51401;48.882;12.598;2023-03-01T02:49:35;22.33;;;12.32;;
64903;SDS011;51401;48.882;12.598;2023-03-01T02:54:39;21.38;;;11.63;;
64903;SDS011;51401;48.882;12.598;2023-03-01T02:57:20;20.20;;;13.00;;
64903;SDS011;51401;48.882;12.598;2023-03-01T02:59:47;22.20;;;11.63;;
64903;SDS011;51401;48.882;12.598;2023-03-01T03:02:23;21.27;;;11.73;;
64903;SDS011;51401;48.882;12.598;2023-03-01T03:07:35;19.85;;;10.90;;
64903;SDS011;51401;48.882;12.598;2023-03-01T03:10:03;23.90;;;12.27;;
64903;SDS011;51401;48.882;12.598;2023-03-01T03:12:29;18.38;;;11.38;;
64903;SDS011;51401;48.882;12.598;2023-03-01T03:14:55;23.83;;;11.15;;
64903;SDS011;51401;48.882;12.598;2023-03-01T03:17:20;21.05;;;10.55;;
64903;SDS011;51401;48.882;12.598;2023-03-01T03:19:45;21.35;;;12.00;;
64903;SDS011;51401;48.882;12.598;2023-03-01T03:22:11;18.17;;;10.48;;
64903;SDS011;51401;48.882;12.598;2023-03-01T03:24:37;24.00;;;12.38;;
64903;SDS011;51401;48.882;12.598;2023-03-01T03:27:03;19.90;;;10.63;;
64903;SDS011;51401;48.882;12.598;2023-03-01T03:29:29;21.65;;;11.23;;
64903;SDS011;51401;48.882;12.598;2023-03-01T03:31:55;21.20;;;11.63;;
64903;SDS011;51401;48.882;12.598;2023-03-01T03:34:20;21.75;;;12.57;;
64903;SDS011;51401;48.882;12.598;2023-03-01T03:36:46;19.85;;;10.80;;
64903;SDS011;51401;48.882;12.598;2023-03-01T03:39:11;20.35;;;11.73;;
64903;SDS011;51401;48.882;12.598;2023-03-01T03:41:36;21.60;;;12.43;;
64903;SDS011;51401;48.882;12.598;2023-03-01T03:44:02;19.23;;;11.50;;
64903;SDS011;51401;48.882;12.598;2023-03-01T03:46:27;21.48;;;11.88;;
64903;SDS011;51401;48.882;12.598;2023-03-01T03:48:52;19.42;;;9.88;;
64903;SDS011;51401;48.882;12.598;2023-03-01T03:51:18;21.42;;;12.25;;
64903;SDS011;51401;48.882;12.598;2023-03-01T03:53:44;19.30;;;11.48;;
64903;SDS011;51401;48.882;12.598;2023-03-01T03:56:10;20.50;;;11.23;;
64903;SDS011;51401;48.882;12.598;2023-03-01T03:58:36;21.55;;;11.45;;
64903;SDS011;51401;48.882;12.598;2023-03-01T04:01:01;22.05;;;10.95;;
64903;SDS011;51401;48.882;12.598;2023-03-01T04:03:28;23.92;;;12.52;;
64903;SDS011;51401;48.882;12.598;2023-03-01T04:05:53;20.20;;;11.00;;
64903;SDS011;51401;48.882;12.598;2023-03-01T04:08:21;20.42;;;10.82;;
64903;SDS011;51401;48.882;12.598;2023-03-01T04:10:51;19.75;;;10.60;;
64903;SDS011;51401;48.882;12.598;2023-03-01T04:13:18;21.65;;;11.88;;
64903;SDS011;51401;48.882;12.598;2023-03-01T04:15:46;20.75;;;11.43;;
64903;SDS011;51401;48.882;12.598;2023-03-01T04:18:13;21.38;;;11.10;;
64903;SDS011;51401;48.882;12.598;2023-03-01T04:20:40;22.70;;;12.43;;
64903;SDS011;51401;48.882;12.598;2023-03-01T04:23:08;20.73;;;10.65;;
64903;SDS011;51401;48.882;12.598;2023-03-01T04:25:50;18.35;;;10.80;;
64903;SDS011;51401;48.882;12.598;2023-03-01T04:30:47;21.95;;;11.85;;
64903;SDS011;51401;48.882;12.598;2023-03-01T04:33:12;22.23;;;11.52;;
64903;SDS011;51401;48.882;12.598;2023-03-01T04:35:37;22.50;;;12.55;;
64903;SDS011;51401;48.882;12.598;2023-03-01T04:38:04;24.80;;;11.25;;
64903;SDS011;51401;48.882;12.598;2023-03-01T04:40:30;17.40;;;10.07;;
64903;SDS011;51401;48.882;12.598;2023-03-01T04:42:55;20.27;;;11.65;;
64903;SDS011;51401;48.882;12.598;2023-03-01T04:45:21;21.95;;;12.48;;
64903;SDS011;51401;48.882;12.598;2023-03-01T04:47:46;21.40;;;11.73;;
64903;SDS011;51401;48.882;12.598;2023-03-01T04:50:13;22.08;;;11.48;;
64903;SDS011;51401;48.882;12.598;2023-03-01T04:52:41;23.92;;;11.95;;
64903;SDS011;51401;48.882;12.598;2023-03-01T04:55:07;20.15;;;11.30;;
64903;SDS011;51401;48.882;12.598;2023-03-01T04:57:33;22.42;;;11.05;;
64903;SDS011;51401;48.882;12.598;2023-03-01T04:59:58;21.95;;;12.35;;
64903;SDS011;51401;48.882;12.598;2023-03-01T05:02:24;23.85;;;12.73;;
64903;SDS011;51401;48.882;12.598;2023-03-01T05:04:49;20.95;;;11.57;;
64903;SDS011;51401;48.882;12.598;2023-03-01T05:07:14;20.70;;;11.05;;
64903;SDS011;51401;48.882;12.598;2023-03-01T05:09:44;19.10;;;9.63;;
64903;SDS011;51401;48.882;12.598;2023-03-01T05:12:13;24.15;;;11.82;;
64903;SDS011;51401;48.882;12.598;2023-03-01T05:14:40;22.25;;;11.63;;
64903;SDS011;51401;48.882;12.598;2023-03-01T05:17:05;24.63;;;12.68;;
64903;SDS011;51401;48.882;12.598;2023-03-01T05:19:31;21.08;;;11.32;;
64903;SDS011;51401;48.882;12.598;2023-03-01T05:21:57;18.80;;;10.82;;
64903;SDS011;51401;48.882;12.598;2023-03-01T05:24:26;23.20;;;11.88;;
64903;SDS011;51401;48.882;12.598;2023-03-01T05:26:53;26.33;;;14.15;;
64903;SDS011;51401;48.882;12.598;2023-03-01T05:29:19;23.13;;;12.15;;
64903;SDS011;51401;48.882;12.598;2023-03-01T05:31:59;21.10;;;12.43;;
64903;SDS011;51401;48.882;12.598;2023-03-01T05:34:26;22.40;;;11.93;;
64903;SDS011;51401;48.882;12.598;2023-03-01T05:36:53;21.75;;;11.00;;
64903;SDS011;51401;48.882;12.598;2023-03-01T05:39:19;17.77;;;10.85;;
64903;SDS011;51401;48.882;12.598;2023-03-01T05:41:52;20.13;;;10.82;;
64903;SDS011;51401;48.882;12.598;2023-03-01T05:44:18;22.58;;;12.02;;
64903;SDS011;51401;48.882;12.598;2023-03-01T05:46:43;20.52;;;11.02;;
64903;SDS011;51401;48.882;12.598;2023-03-01T05:49:09;23.92;;;11.80;;
64903;SDS011;51401;48.882;12.598;2023-03-01T05:51:35;19.55;;;11.60;;
64903;SDS011;51401;48.882;12.598;2023-03-01T05:54:01;20.70;;;11.63;;
64903;SDS011;51401;48.882;12.598;2023-03-01T05:56:26;19.33;;;10.93;;
64903;SDS011;51401;48.882;12.598;2023-03-01T05:58:51;22.92;;;12.48;;
64903;SDS011;51401;48.882;12.598;2023-03-01T06:01:17;21.30;;;11.27;;
64903;SDS011;51401;48.882;12.598;2023-03-01T06:03:42;21.35;;;11.13;;
64903;SDS011;51401;48.882;12.598;2023-03-01T06:06:07;18.15;;;10.98;;
64903;SDS011;51401;48.882;12.598;2023-03-01T06:08:33;22.33;;;10.32;;
64903;SDS011;51401;48.882;12.598;2023-03-01T06:10:58;20.00;;;10.63;;
64903;SDS011;51401;48.882;12.598;2023-03-01T06:13:24;23.20;;;11.30;;
64903;SDS011;51401;48.882;12.598;2023-03-01T06:15:49;21.58;;;11.18;;
64903;SDS011;51401;48.882;12.598;2023-03-01T06:18:15;21.25;;;11.45;;
64903;SDS011;51401;48.882;12.598;2023-03-01T06:20:40;21.50;;;11.60;;
64903;SDS011;51401;48.882;12.598;2023-03-01T06:23:06;20.42;;;11.70;;
64903;SDS011;51401;48.882;12.598;2023-03-01T06:25:31;18.63;;;12.05;;
64903;SDS011;51401;48.882;12.598;2023-03-01T06:27:56;21.40;;;10.65;;
64903;SDS011;51401;48.882;12.598;2023-03-01T06:30:22;18.98;;;10.85;;
64903;SDS011;51401;48.882;12.598;2023-03-01T06:32:49;24.13;;;11.95;;
64903;SDS011;51401;48.882;12.598;2023-03-01T06:35:15;23.38;;;12.48;;
64903;SDS011;51401;48.882;12.598;2023-03-01T06:37:45;24.25;;;12.32;;
64903;SDS011;51401;48.882;12.598;2023-03-01T06:40:11;22.85;;;11.73;;
64903;SDS011;51401;48.882;12.598;2023-03-01T06:42:39;19.25;;;11.20;;
64903;SDS011;51401;48.882;12.598;2023-03-01T06:45:05;22.42;;;10.77;;
64903;SDS011;51401;48.882;12.598;2023-03-01T06:47:32;19.25;;;11.13;;
64903;SDS011;51401;48.882;12.598;2023-03-01T06:49:58;19.92;;;10.70;;
64903;SDS011;51401;48.882;12.598;2023-03-01T06:52:24;18.60;;;10.65;;
64903;SDS011;51401;48.882;12.598;2023-03-01T06:54:50;23.10;;;11.30;;
64903;SDS011;51401;48.882;12.598;2023-03-01T06:57:15;16.98;;;10.38;;
64903;SDS011;51401;48.882;12.598;2023-03-01T06:59:41;20.30;;;10.93;;
64903;SDS011;51401;48.882;12.598;2023-03-01T07:02:06;20.77;;;11.70;;
64903;SDS011;51401;48.882;12.598;2023-03-01T07:04:31;18.13;;;10.55;;
64903;SDS011;51401;48.882;12.598;2023-03-01T07:06:57;20.77;;;12.68;;
64903;SDS011;51401;48.882;12.598;2023-03-01T07:09:22;17.98;;;11.80;;
64903;SDS011;51401;48.882;12.598;2023-03-01T07:11:48;23.05;;;13.10;;
64903;SDS011;51401;48.882;12.598;2023-03-01T07:14:14;19.13;;;12.07;;
64903;SDS011;51401;48.882;12.598;2023-03-01T07:16:39;19.65;;;11.80;;
64903;SDS011;51401;48.882;12.598;2023-03-01T07:19:04;17.83;;;11.52;;
64903;SDS011;51401;48.882;12.598;2023-03-01T07:21:30;21.40;;;13.15;;
64903;SDS011;51401;48.882;12.598;2023-03-01T07:23:56;20.77;;;13.20;;
64903;SDS011;51401;48.882;12.598;2023-03-01T07:26:21;24.90;;;13.95;;
64903;SDS011;51401;48.882;12.598;2023-03-01T07:28:46;21.20;;;11.93;;
64903;SDS011;51401;48.882;12.598;2023-03-01T07:31:12;20.00;;;12.30;;
64903;SDS011;51401;48.882;12.598;2023-03-01T07:33:37;19.98;;;13.23;;
64903;SDS011;51401;48.882;12.598;2023-03-01T07:36:03;16.52;;;11.55;;
64903;SDS011;51401;48.882;12.598;2023-03-01T07:38:29;19.35;;;11.70;;
64903;SDS011;51401;48.882;12.598;2023-03-01T07:40:58;19.17;;;11.52;;
64903;SDS011;51401;48.882;12.598;2023-03-01T07:45:50;19.58;;;13.02;;
64903;SDS011;51401;48.882;12.598;2023-03-01T07:48:16;19.30;;;12.25;;
64903;SDS011;51401;48.882;12.598;2023-03-01T07:50:41;21.15;;;12.95;;
64903;SDS011;51401;48.882;12.598;2023-03-01T07:53:07;20.67;;;12.85;;
64903;SDS011;51401;48.882;12.598;2023-03-01T07:55:33;21.95;;;12.05;;
64903;SDS011;51401;48.882;12.598;2023-03-01T07:57:58;19.92;;;11.65;;
64903;SDS011;51401;48.882;12.598;2023-03-01T08:00:23;20.65;;;11.82;;
64903;SDS011;51401;48.882;12.598;2023-03-01T08:02:49;19.63;;;12.68;;
64903;SDS011;51401;48.882;12.598;2023-03-01T08:05:14;20.10;;;13.13;;
64903;SDS011;51401;48.882;12.598;2023-03-01T08:07:39;21.05;;;12.43;;
64903;SDS011;51401;48.882;12.598;2023-03-01T08:10:05;21.45;;;13.25;;
64903;SDS011;51401;48.882;12.598;2023-03-01T08:12:30;19.23;;;13.13;;
64903;SDS011;51401;48.882;12.598;2023-03-01T08:14:56;19.27;;;13.35;;
64903;SDS011;51401;48.882;12.598;2023-03-01T08:17:21;19.92;;;12.68;;
64903;SDS011;51401;48.882;12.598;2023-03-01T08:19:47;24.15;;;13.32;;
64903;SDS011;51401;48.882;12.598;2023-03-01T08:22:12;19.65;;;12.40;;
64903;SDS011;51401;48.882;12.598;2023-03-01T08:24:37;19.05;;;12.73;;
64903;SDS011;51401;48.882;12.598;2023-03-01T08:27:03;19.52;;;11.57;;
64903;SDS011;51401;48.882;12.598;2023-03-01T08:29:32;18.55;;;11.98;;
64903;SDS011;51401;48.882;12.598;2023-03-01T08:31:57;19.65;;;11.95;;
64903;SDS011;51401;48.882;12.598;2023-03-01T08:34:23;19.20;;;11.18;;
64903;SDS011;51401;48.882;12.598;2023-03-01T08:36:48;17.25;;;11.70;;
64903;SDS011;51401;48.882;12.598;2023-03-01T08:39:15;17.55;;;12.13;;
64903;SDS011;51401;48.882;12.598;2023-03-01T08:41:42;18.38;;;11.60;;
64903;SDS011;51401;48.882;12.598;2023-03-01T08:44:08;16.83;;;11.40;;
64903;SDS011;51401;48.882;12.598;2023-03-01T08:46:36;17.27;;;11.57;;
64903;SDS011;51401;48.882;12.598;2023-03-01T08:49:04;20.20;;;15.90;;
64903;SDS011;51401;48.882;12.598;2023-03-01T08:51:32;14.57;;;10.70;;
64903;SDS011;51401;48.882;12.598;2023-03-01T08:54:01;18.02;;;11.35;;
64903;SDS011;51401;48.882;12.598;2023-03-01T08:56:31;13.87;;;10.43;;
64903;SDS011;51401;48.882;12.598;2023-03-01T08:58:56;16.08;;;11.32;;
64903;SDS011;51401;48.882;12.598;2023-03-01T09:01:21;17.35;;;10.93;;
64903;SDS011;51401;48.882;12.598;2023-03-01T09:03:47;15.52;;;10.88;;
64903;SDS011;51401;48.882;12.598;2023-03-01T09:06:12;17.63;;;11.20;;
64903;SDS011;51401;48.882;12.598;2023-03-01T09:08:40;17.83;;;10.90;;
64903;SDS011;51401;48.882;12.598;2023-03-01T09:11:07;16.73;;;9.57;;
64903;SDS011;51401;48.882;12.598;2023-03-01T09:13:34;14.55;;;10.45;;
64903;SDS011;51401;48.882;12.598;2023-03-01T09:16:00;17.75;;;11.30;;
64903;SDS011;51401;48.882;12.598;2023-03-01T09:18:27;15.32;;;9.98;;
64903;SDS011;51401;48.882;12.598;2023-03-01T09:20:52;14.50;;;10.10;;
64903;SDS011;51401;48.882;12.598;2023-03-01T09:23:20;17.20;;;10.30;;
64903;SDS011;51401;48.882;12.598;2023-03-01T09:25:46;13.82;;;9.65;;
64903;SDS011;51401;48.882;12.598;2023-03-01T09:28:11;15.05;;;9.77;;
64903;SDS011;51401;48.882;12.598;2023-03-01T09:30:36;14.60;;;9.75;;
64903;SDS011;51401;48.882;12.598;2023-03-01T09:33:02;15.23;;;9.27;;
64903;SDS011;51401;48.882;12.598;2023-03-01T09:35:27;13.43;;;9.80;;
64903;SDS011;51401;48.882;12.598;2023-03-01T09:37:52;16.20;;;9.68;;
64903;SDS011;51401;48.882;12.598;2023-03-01T09:40:19;17.48;;;10.40;;
64903;SDS011;51401;48.882;12.598;2023-03-01T09:42:59;15.88;;;11.50;;
64903;SDS011;51401;48.882;12.598;2023-03-01T09:45:34;15.05;;;10.13;;
64903;SDS011;51401;48.882;12.598;2023-03-01T09:48:02;13.65;;;10.25;;
64903;SDS011;51401;48.882;12.598;2023-03-01T09:50:35;15.65;;;9.85;;
64903;SDS011;51401;48.882;12.598;2023-03-01T09:53:05;16.27;;;10.20;;
64903;SDS011;51401;48.882;12.598;2023-03-01T10:01:20;13.00;;;9.50;;
64903;SDS011;51401;48.882;12.598;2023-03-01T10:04:11;14.60;;;9.55;;
64903;SDS011;51401;48.882;12.598;2023-03-01T10:07:05;12.87;;;9.57;;
64903;SDS011;51401;48.882;12.598;2023-03-01T10:09:36;16.20;;;10.35;;
64903;SDS011;51401;48.882;12.598;2023-03-01T10:12:04;12.07;;;9.05;;
64903;SDS011;51401;48.882;12.598;2023-03-01T10:14:36;13.45;;;8.82;;
64903;SDS011;51401;48.882;12.598;2023-03-01T10:17:12;12.07;;;8.50;;
64903;SDS011;51401;48.882;12.598;2023-03-01T10:19:50;13.70;;;8.73;;
64903;SDS011;51401;48.882;12.598;2023-03-01T10:22:19;12.90;;;8.77;;
64903;SDS011;51401;48.882;12.598;2023-03-01T10:24:47;12.02;;;8.23;;
64903;SDS011;51401;48.882;12.598;2023-03-01T10:32:41;12.70;;;9.18;;
64903;SDS011;51401;48.882;12.598;2023-03-01T10:35:19;12.38;;;9.00;;
64903;SDS011;51401;48.882;12.598;2023-03-01T10:40:30;12.10;;;9.07;;
64903;SDS011;51401;48.882;12.598;2023-03-01T10:42:57;13.15;;;8.20;;
64903;SDS011;51401;48.882;12.598;2023-03-01T10:50:35;12.55;;;8.98;;
64903;SDS011;51401;48.882;12.598;2023-03-01T10:53:03;12.68;;;9.48;;
64903;SDS011;51401;48.882;12.598;2023-03-01T10:55:36;12.75;;;9.02;;
64903;SDS011;51401;48.882;12.598;2023-03-01T10:58:08;14.30;;;9.25;;
64903;SDS011;51401;48.882;12.598;2023-03-01T11:03:30;14.05;;;8.70;;
64903;SDS011;51401;48.882;12.598;2023-03-01T11:13:54;15.32;;;9.73;;
64903;SDS011;51401;48.882;12.598;2023-03-01T11:16:22;11.30;;;8.13;;
64903;SDS011;51401;48.882;12.598;2023-03-01T11:19:00;14.27;;;9.25;;
64903;SDS011;51401;48.882;12.598;2023-03-01T11:21:44;16.50;;;8.93;;
64903;SDS011;51401;48.882;12.598;2023-03-01T11:24:17;11.90;;;8.70;;
64903;SDS011;51401;48.882;12.598;2023-03-01T11:26:45;14.13;;;9.23;;
64903;SDS011;51401;48.882;12.598;2023-03-01T11:29:21;13.88;;;9.48;;
64903;SDS011;51401;48.882;12.598;2023-03-01T11:32:03;19.23;;;14.80;;
64903;SDS011;51401;48.882;12.598;2023-03-01T11:34:36;16.60;;;9.52;;
64903;SDS011;51401;48.882;12.598;2023-03-01T11:37:14;14.07;;;9.35;;
64903;SDS011;51401;48.882;12.598;2023-03-01T11:39:54;13.60;;;9.40;;
64903;SDS011;51401;48.882;12.598;2023-03-01T11:45:05;13.68;;;9.38;;
64903;SDS011;51401;48.882;12.598;2023-03-01T12:06:57;15.10;;;10.05;;
64903;SDS011;51401;48.882;12.598;2023-03-01T12:09:30;16.05;;;10.80;;
64903;SDS011;51401;48.882;12.598;2023-03-01T12:17:40;15.48;;;10.77;;
64903;SDS011;51401;48.882;12.598;2023-03-01T12:20:20;15.23;;;10.18;;
64903;SDS011;51401;48.882;12.598;2023-03-01T12:25:54;15.27;;;11.07;;
64903;SDS011;51401;48.882;12.598;2023-03-01T12:31:27;14.52;;;10.55;;
64903;SDS011;51401;48.882;12.598;2023-03-01T12:40:17;16.77;;;10.75;;
64903;SDS011;51401;48.882;12.598;2023-03-01T12:42:53;15.90;;;11.07;;
64903;SDS011;51401;48.882;12.598;2023-03-01T12:48:02;15.35;;;11.10;;
64903;SDS011;51401;48.882;12.598;2023-03-01T12:50:54;15.15;;;10.57;;
64903;SDS011;51401;48.882;12.598;2023-03-01T12:53:24;18.27;;;11.10;;
64903;SDS011;51401;48.882;12.598;2023-03-01T12:55:52;15.95;;;11.30;;
64903;SDS011;51401;48.882;12.598;2023-03-01T12:58:33;18.45;;;10.95;;
64903;SDS011;51401;48.882;12.598;2023-03-01T13:03:57;18.65;;;11.20;;
64903;SDS011;51401;48.882;12.598;2023-03-01T13:06:35;16.83;;;10.60;;
64903;SDS011;51401;48.882;12.598;2023-03-01T13:11:41;18.27;;;11.75;;
64903;SDS011;51401;48.882;12.598;2023-03-01T13:16:48;19.73;;;12.05;;
64903;SDS011;51401;48.882;12.598;2023-03-01T13:19:21;17.63;;;11.63;;
64903;SDS011;51401;48.882;12.598;2023-03-01T13:21:51;17.95;;;11.40;;
64903;SDS011;51401;48.882;12.598;2023-03-01T13:24:25;16.92;;;11.48;;
64903;SDS011;51401;48.882;12.598;2023-03-01T13:29:41;16.25;;;11.48;;
64903;SDS011;51401;48.882;12.598;2023-03-01T13:32:25;16.02;;;11.20;;
64903;SDS011;51401;48.882;12.598;2023-03-01T13:34:53;16.08;;;10.57;;
64903;SDS011;51401;48.882;12.598;2023-03-01T13:37:25;17.20;;;11.70;;
64903;SDS011;51401;48.882;12.598;2023-03-01T13:39:54;15.65;;;10.73;;
64903;SDS011;51401;48.882;12.598;2023-03-01T13:42:34;15.27;;;10.30;;
64903;SDS011;51401;48.882;12.598;2023-03-01T13:45:02;16.02;;;11.10;;
64903;SDS011;51401;48.882;12.598;2023-03-01T13:47:31;16.98;;;11.32;;
64903;SDS011;51401;48.882;12.598;2023-03-01T13:50:00;17.17;;;11.90;;
64903;SDS011;51401;48.882;12.598;2023-03-01T13:54:59;15.13;;;11.35;;
64903;SDS011;51401;48.882;12.598;2023-03-01T13:57:37;17.17;;;11.93;;
64903;SDS011;51401;48.882;12.598;2023-03-01T14:00:06;17.75;;;12.13;;
64903;SDS011;51401;48.882;12.598;2023-03-01T14:02:32;19.17;;;12.80;;
64903;SDS011;51401;48.882;12.598;2023-03-01T14:04:59;16.27;;;11.32;;
64903;SDS011;51401;48.882;12.598;2023-03-01T14:07:26;15.88;;;12.48;;
64903;SDS011;51401;48.882;12.598;2023-03-01T14:09:56;20.63;;;13.47;;
64903;SDS011;51401;48.882;12.598;2023-03-01T14:15:19;19.02;;;11.75;;
64903;SDS011;51401;48.882;12.598;2023-03-01T14:20:32;20.73;;;12.80;;
64903;SDS011;51401;48.882;12.598;2023-03-01T14:23:13;17.75;;;12.30;;
64903;SDS011;51401;48.882;12.598;2023-03-01T14:25:49;18.92;;;11.70;;
64903;SDS011;51401;48.882;12.598;2023-03-01T14:28:23;17.30;;;11.77;;
64903;SDS011;51401;48.882;12.598;2023-03-01T14:30:55;19.30;;;12.18;;
64903;SDS011;51401;48.882;12.598;2023-03-01T14:33:28;19.70;;;12.82;;
64903;SDS011;51401;48.882;12.598;2023-03-01T14:38:29;15.63;;;11.13;;
64903;SDS011;51401;48.882;12.598;2023-03-01T14:41:11;17.60;;;11.13;;
64903;SDS011;51401;48.882;12.598;2023-03-01T14:43:50;18.83;;;11.52;;
64903;SDS011;51401;48.882;12.598;2023-03-01T14:46:18;17.60;;;11.95;;
64903;SDS011;51401;48.882;12.598;2023-03-01T14:48:48;16.23;;;11.52;;
64903;SDS011;51401;48.882;12.598;2023-03-01T14:51:14;16.23;;;11.15;;
64903;SDS011;51401;48.882;12.598;2023-03-01T14:53:39;18.80;;;12.02;;
64903;SDS011;51401;48.882;12.598;2023-03-01T14:56:12;16.80;;;11.25;;
64903;SDS011;51401;48.882;12.598;2023-03-01T14:58:39;18.33;;;12.52;;
64903;SDS011;51401;48.882;12.598;2023-03-01T15:01:04;18.20;;;11.55;;
64903;SDS011;51401;48.882;12.598;2023-03-01T15:03:31;17.02;;;12.20;;
64903;SDS011;51401;48.882;12.598;2023-03-01T15:06:00;20.23;;;12.23;;
64903;SDS011;51401;48.882;12.598;2023-03-01T15:08:27;15.75;;;10.18;;
64903;SDS011;51401;48.882;12.598;2023-03-01T15:11:05;18.70;;;11.75;;
64903;SDS011;51401;48.882;12.598;2023-03-01T15:13:34;18.70;;;12.20;;
64903;SDS011;51401;48.882;12.598;2023-03-01T15:16:07;18.63;;;11.38;;
64903;SDS011;51401;48.882;12.598;2023-03-01T15:18:51;17.95;;;11.65;;
64903;SDS011;51401;48.882;12.598;2023-03-01T15:21:21;17.17;;;11.50;;
64903;SDS011;51401;48.882;12.598;2023-03-01T15:24:34;16.48;;;10.25;;
64903;SDS011;51401;48.882;12.598;2023-03-01T15:29:19;19.40;;;11.07;;
64903;SDS011;51401;48.882;12.598;2023-03-01T15:31:57;16.33;;;11.25;;
64903;SDS011;51401;48.882;12.598;2023-03-01T15:34:33;16.60;;;11.00;;
64903;SDS011;51401;48.882;12.598;2023-03-01T15:37:03;17.80;;;10.77;;
64903;SDS011;51401;48.882;12.598;2023-03-01T15:39:53;17.00;;;10.65;;
64903;SDS011;51401;48.882;12.598;2023-03-01T15:47:40;21.25;;;11.68;;
64903;SDS011;51401;48.882;12.598;2023-03-01T15:50:18;21.98;;;13.30;;
64903;SDS011;51401;48.882;12.598;2023-03-01T15:52:46;22.70;;;13.48;;
64903;SDS011;51401;48.882;12.598;2023-03-01T15:57:48;21.00;;;12.57;;
64903;SDS011;51401;48.882;12.598;2023-03-01T16:00:14;30.08;;;16.42;;
64903;SDS011;51401;48.882;12.598;2023-03-01T16:02:40;26.08;;;15.45;;
64903;SDS011;51401;48.882;12.598;2023-03-01T16:05:17;19.45;;;11.63;;
64903;SDS011;51401;48.882;12.598;2023-03-01T16:07:45;32.05;;;18.38;;
64903;SDS011;51401;48.882;12.598;2023-03-01T16:10:11;25.48;;;13.75;;
64903;SDS011;51401;48.882;12.598;2023-03-01T16:12:37;20.52;;;12.80;;
64903;SDS011;51401;48.882;12.598;2023-03-01T16:15:04;21.70;;;12.65;;
64903;SDS011;51401;48.882;12.598;2023-03-01T16:17:33;16.48;;;10.95;;